createdAt,value
2022-11-26T00:00:50.640Z,14.60
2022-11-26T00:03:17.414Z,17.33
2022-11-26T00:05:44.623Z,14.68
2022-11-26T00:08:15.362Z,17.60
2022-11-26T00:10:41.827Z,15.50
2022-11-26T00:13:15.972Z,16.77
2022-11-26T00:18:08.671Z,16.70
2022-11-26T00:20:35.084Z,17.15
2022-11-26T00:23:03.258Z,18.08
2022-11-26T00:25:43.105Z,16.25
2022-11-26T00:28:28.165Z,13.95
2022-11-26T00:30:56.149Z,16.40
2022-11-26T00:33:23.176Z,19.27
2022-11-26T00:35:55.657Z,18.00
2022-11-26T00:38:22.739Z,17.40
2022-11-26T00:40:49.127Z,18.38
2022-11-26T00:43:16.859Z,22.50
2022-11-26T00:45:43.830Z,19.05
2022-11-26T00:48:10.293Z,15.45
2022-11-26T00:50:38.341Z,15.05
2022-11-26T00:53:05.735Z,17.90
2022-11-26T00:55:39.189Z,18.23
2022-11-26T00:58:06.437Z,19.58
2022-11-26T01:00:34.973Z,20.58
2022-11-26T01:03:01.868Z,19.83
2022-11-26T01:05:33.579Z,15.88
2022-11-26T01:08:02.417Z,23.55
2022-11-26T01:10:29.363Z,19.33
2022-11-26T01:12:56.198Z,16.50
2022-11-26T01:15:24.427Z,17.73
2022-11-26T01:17:51.267Z,19.40
2022-11-26T01:20:25.638Z,12.07
2022-11-26T01:22:53.190Z,17.10
2022-11-26T01:25:20.180Z,17.48
2022-11-26T01:27:46.606Z,15.02
2022-11-26T01:30:24.655Z,11.63
2022-11-26T01:32:51.282Z,16.08
2022-11-26T01:35:19.031Z,17.55
2022-11-26T01:37:45.688Z,13.77
2022-11-26T01:40:39.246Z,18.73
2022-11-26T01:43:15.572Z,21.98
2022-11-26T01:45:41.972Z,16.05
2022-11-26T01:48:27.098Z,21.38
2022-11-26T01:51:03.884Z,16.35
2022-11-26T01:53:32.982Z,13.15
2022-11-26T01:56:00.730Z,13.10
2022-11-26T01:58:40.201Z,11.90
2022-11-26T02:01:07.017Z,15.90
2022-11-26T02:03:37.948Z,12.25
2022-11-26T02:06:06.879Z,12.73
2022-11-26T02:08:34.273Z,12.93
2022-11-26T02:11:08.961Z,14.57
2022-11-26T02:13:35.369Z,18.85
2022-11-26T02:16:10.223Z,21.75
2022-11-26T02:18:38.127Z,17.23
2022-11-26T02:21:06.755Z,13.02
2022-11-26T02:23:51.692Z,19.73
2022-11-26T02:26:21.075Z,12.02
2022-11-26T02:29:07.720Z,13.77
2022-11-26T02:31:37.265Z,15.20
2022-11-26T02:34:12.901Z,15.98
2022-11-26T02:36:48.517Z,22.50
2022-11-26T02:39:19.116Z,20.33
2022-11-26T02:41:46.881Z,17.75
2022-11-26T02:44:14.661Z,25.00
2022-11-26T02:46:41.698Z,23.05
2022-11-26T02:49:09.605Z,21.77
2022-11-26T02:51:36.127Z,19.70
2022-11-26T02:54:02.570Z,20.38
2022-11-26T02:56:29.071Z,17.27
2022-11-26T02:58:55.953Z,18.20
2022-11-26T03:01:35.502Z,15.30
2022-11-26T03:04:05.201Z,13.35
2022-11-26T03:06:32.482Z,19.65
2022-11-26T03:08:59.166Z,15.77
2022-11-26T03:11:25.556Z,19.70
2022-11-26T03:13:51.943Z,19.50
2022-11-26T03:16:18.550Z,17.52
2022-11-26T03:18:44.991Z,18.38
2022-11-26T03:21:11.395Z,19.95
2022-11-26T03:23:37.848Z,22.95
2022-11-26T03:26:04.214Z,22.67
2022-11-26T03:28:30.594Z,20.75
2022-11-26T03:30:56.936Z,20.90
2022-11-26T03:33:23.399Z,23.90
2022-11-26T03:35:49.765Z,26.70
2022-11-26T03:38:16.421Z,32.47
2022-11-26T03:40:42.964Z,22.90
2022-11-26T03:43:09.370Z,26.63
2022-11-26T03:45:35.759Z,20.90
2022-11-26T03:48:02.185Z,16.40
2022-11-26T03:50:28.838Z,22.45
2022-11-26T03:52:55.211Z,18.65
2022-11-26T03:55:21.566Z,25.58
2022-11-26T03:57:47.995Z,15.85
2022-11-26T04:00:14.519Z,14.93
2022-11-26T04:02:40.897Z,14.02
2022-11-26T04:05:07.523Z,15.02
2022-11-26T04:07:33.914Z,11.82
2022-11-26T04:10:00.351Z,10.25
2022-11-26T04:12:26.769Z,14.07
2022-11-26T04:14:53.135Z,11.65
2022-11-26T04:17:19.481Z,13.18
2022-11-26T04:19:45.856Z,13.77
2022-11-26T04:22:12.209Z,10.40
2022-11-26T04:24:38.751Z,15.48
2022-11-26T04:27:05.304Z,11.35
2022-11-26T04:29:31.762Z,12.80
2022-11-26T04:31:58.282Z,12.77
2022-11-26T04:34:24.910Z,10.48
2022-11-26T04:36:51.338Z,14.63
2022-11-26T04:39:17.695Z,17.70
2022-11-26T04:41:44.143Z,14.60
2022-11-26T04:44:10.748Z,11.73
2022-11-26T04:46:37.123Z,12.18
2022-11-26T04:49:03.653Z,7.93
2022-11-26T04:51:30.231Z,10.05
2022-11-26T04:53:58.388Z,6.97
2022-11-26T04:56:28.003Z,9.27
2022-11-26T04:58:54.551Z,23.85
2022-11-26T05:01:21.125Z,7.90
2022-11-26T05:03:47.518Z,7.35
2022-11-26T05:06:13.922Z,7.30
2022-11-26T05:08:40.286Z,6.35
2022-11-26T05:11:06.811Z,16.85
2022-11-26T05:13:33.181Z,33.97
2022-11-26T05:15:59.614Z,8.75
2022-11-26T05:18:25.975Z,30.45
2022-11-26T05:20:52.315Z,23.45
2022-11-26T05:23:18.711Z,13.75
2022-11-26T05:25:45.148Z,26.73
2022-11-26T05:28:11.512Z,46.38
2022-11-26T05:30:38.210Z,22.95
2022-11-26T05:33:04.560Z,9.93
2022-11-26T05:35:30.924Z,20.27
2022-11-26T05:37:57.301Z,23.40
2022-11-26T05:40:23.662Z,12.70
2022-11-26T05:42:50.066Z,10.57
2022-11-26T05:45:16.553Z,19.70
2022-11-26T05:47:43.359Z,9.55
2022-11-26T05:50:10.043Z,9.27
2022-11-26T05:52:36.454Z,8.27
2022-11-26T05:55:02.849Z,8.60
2022-11-26T05:57:29.255Z,13.60
2022-11-26T05:59:55.586Z,10.48
2022-11-26T06:02:22.037Z,21.30
2022-11-26T06:04:48.522Z,14.98
2022-11-26T06:07:14.928Z,32.65
2022-11-26T06:09:41.415Z,24.00
2022-11-26T06:12:07.986Z,32.55
2022-11-26T06:14:34.367Z,27.00
2022-11-26T06:17:01.025Z,21.05
2022-11-26T06:19:27.407Z,24.33
2022-11-26T06:21:53.777Z,26.45
2022-11-26T06:24:20.171Z,25.17
2022-11-26T06:26:46.580Z,19.30
2022-11-26T06:29:13.185Z,22.25
2022-11-26T06:31:39.616Z,24.52
2022-11-26T06:34:06.066Z,18.38
2022-11-26T06:36:32.458Z,24.58
2022-11-26T06:38:58.807Z,17.67
2022-11-26T06:41:25.253Z,20.80
2022-11-26T06:43:51.655Z,22.88
2022-11-26T06:46:18.041Z,21.60
2022-11-26T06:48:44.407Z,24.50
2022-11-26T06:51:12.225Z,18.98
2022-11-26T06:53:38.816Z,24.60
2022-11-26T06:56:06.819Z,23.73
2022-11-26T06:58:33.627Z,24.08
2022-11-26T07:01:00.041Z,23.42
2022-11-26T07:03:30.613Z,21.55
2022-11-26T07:05:59.723Z,24.50
2022-11-26T07:08:26.083Z,28.65
2022-11-26T07:10:52.459Z,30.70
2022-11-26T07:13:18.913Z,22.58
2022-11-26T07:15:45.465Z,21.98
2022-11-26T07:18:11.829Z,22.08
2022-11-26T07:20:38.335Z,22.60
2022-11-26T07:23:04.726Z,24.10
2022-11-26T07:25:31.463Z,17.13
2022-11-26T07:27:58.188Z,25.20
2022-11-26T07:30:24.743Z,22.33
2022-11-26T07:32:51.083Z,22.60
2022-11-26T07:35:17.490Z,29.30
2022-11-26T07:37:43.873Z,20.77
2022-11-26T07:40:10.378Z,25.45
2022-11-26T07:42:36.865Z,23.45
2022-11-26T07:45:04.566Z,24.10
2022-11-26T07:47:31.127Z,27.02
2022-11-26T07:49:57.543Z,22.60
2022-11-26T07:52:23.994Z,26.02
2022-11-26T07:55:00.087Z,29.52
2022-11-26T07:57:26.566Z,30.10
2022-11-26T07:59:53.102Z,25.13
2022-11-26T08:02:19.488Z,26.38
2022-11-26T08:04:49.851Z,23.90
2022-11-26T08:07:22.091Z,37.67
2022-11-26T08:09:52.344Z,32.47
2022-11-26T08:12:18.738Z,37.03
2022-11-26T08:14:45.226Z,34.20
2022-11-26T08:17:11.575Z,47.88
2022-11-26T08:19:38.075Z,42.05
2022-11-26T08:22:04.489Z,33.60
2022-11-26T08:24:31.211Z,30.00
2022-11-26T08:27:00.306Z,38.47
2022-11-26T08:29:26.760Z,34.15
2022-11-26T08:31:53.326Z,40.60
2022-11-26T08:34:19.908Z,37.78
2022-11-26T08:36:46.323Z,28.85
2022-11-26T08:39:13.995Z,30.23
2022-11-26T08:41:40.403Z,45.72
2022-11-26T08:44:08.129Z,42.28
2022-11-26T08:46:38.805Z,45.10
2022-11-26T08:49:06.020Z,30.85
2022-11-26T08:51:32.443Z,37.58
2022-11-26T08:53:58.802Z,37.38
2022-11-26T08:56:25.529Z,32.20
2022-11-26T08:58:51.876Z,30.65
2022-11-26T09:01:20.643Z,30.63
2022-11-26T09:03:51.308Z,24.95
2022-11-26T09:06:18.214Z,27.85
2022-11-26T09:09:03.336Z,27.75
2022-11-26T09:11:29.760Z,35.45
2022-11-26T09:13:57.488Z,29.90
2022-11-26T09:16:24.354Z,31.55
2022-11-26T09:18:51.462Z,34.17
2022-11-26T09:21:18.190Z,33.53
2022-11-26T09:23:44.567Z,31.65
2022-11-26T09:26:10.988Z,28.33
2022-11-26T09:28:37.384Z,26.83
2022-11-26T09:31:03.825Z,29.10
2022-11-26T09:33:30.678Z,33.85
2022-11-26T09:36:04.044Z,33.92
2022-11-26T09:38:30.419Z,33.47
2022-11-26T09:41:03.196Z,34.55
2022-11-26T09:43:36.778Z,35.63
2022-11-26T09:46:03.518Z,32.75
2022-11-26T09:48:32.233Z,30.85
2022-11-26T09:51:09.318Z,35.60
2022-11-26T09:53:37.654Z,31.35
2022-11-26T09:56:04.313Z,25.70
2022-11-26T09:58:36.896Z,28.02
2022-11-26T10:01:04.378Z,34.63
2022-11-26T10:03:32.718Z,35.35
2022-11-26T10:06:09.640Z,51.28
2022-11-26T10:08:54.442Z,48.35
2022-11-26T10:11:26.437Z,28.67
2022-11-26T10:13:59.204Z,37.60
2022-11-26T10:16:28.754Z,35.30
2022-11-26T10:18:57.956Z,31.75
2022-11-26T10:21:51.693Z,34.17
2022-11-26T10:24:16.816Z,38.42
2022-11-26T10:26:44.501Z,43.17
2022-11-26T10:29:18.217Z,23.25
2022-11-26T10:31:46.337Z,22.42
2022-11-26T10:34:39.379Z,20.35
2022-11-26T10:37:06.473Z,25.33
2022-11-26T10:39:32.867Z,21.50
2022-11-26T10:42:03.737Z,20.27
2022-11-26T10:44:41.204Z,24.38
2022-11-26T10:47:28.009Z,24.05
2022-11-26T10:49:56.090Z,24.13
2022-11-26T10:52:25.060Z,22.80
2022-11-26T10:55:27.441Z,20.15
2022-11-26T10:57:59.381Z,17.67
2022-11-26T11:00:31.904Z,18.92
2022-11-26T11:02:58.864Z,17.63
2022-11-26T11:05:25.337Z,20.25
2022-11-26T11:07:54.784Z,19.20
2022-11-26T11:10:24.055Z,23.60
2022-11-26T11:13:02.660Z,16.23
2022-11-26T11:15:30.344Z,16.58
2022-11-26T11:18:18.394Z,22.40
2022-11-26T11:20:55.838Z,17.50
2022-11-26T11:23:35.049Z,15.77
2022-11-26T11:26:23.903Z,13.15
2022-11-26T11:28:54.591Z,14.80
2022-11-26T11:31:25.178Z,14.65
2022-11-26T11:33:52.040Z,12.45
2022-11-26T11:36:20.295Z,11.95
2022-11-26T11:38:57.482Z,14.73
2022-11-26T11:41:35.839Z,16.73
2022-11-26T11:44:02.382Z,13.95
2022-11-26T11:46:41.196Z,13.73
2022-11-26T11:49:26.058Z,13.73
2022-11-26T11:52:08.470Z,11.63
2022-11-26T11:54:56.377Z,10.70
2022-11-26T11:57:43.422Z,9.35
2022-11-26T12:00:16.250Z,8.52
2022-11-26T12:02:58.419Z,7.55
2022-11-26T12:05:27.888Z,11.70
2022-11-26T12:08:01.539Z,14.90
2022-11-26T12:10:37.446Z,10.15
2022-11-26T12:13:06.340Z,13.35
2022-11-26T12:15:38.351Z,11.35
2022-11-26T12:18:13.764Z,14.18
2022-11-26T12:20:44.161Z,13.70
2022-11-26T12:23:24.693Z,11.50
2022-11-26T12:25:52.986Z,14.77
2022-11-26T12:28:27.709Z,12.85
2022-11-26T12:30:54.108Z,12.00
2022-11-26T12:33:27.118Z,10.95
2022-11-26T12:35:55.290Z,13.63
2022-11-26T12:38:21.627Z,14.98
2022-11-26T12:40:51.064Z,14.98
2022-11-26T12:43:36.752Z,12.30
2022-11-26T12:46:10.997Z,10.82
2022-11-26T12:48:46.742Z,12.20
2022-11-26T12:51:13.079Z,11.73
2022-11-26T12:53:42.252Z,9.95
2022-11-26T12:56:21.316Z,10.52
2022-11-26T12:59:03.076Z,12.90
2022-11-26T13:01:30.736Z,12.30
2022-11-26T13:04:14.733Z,12.02
2022-11-26T13:06:51.428Z,11.95
2022-11-26T13:12:00.326Z,10.65
2022-11-26T13:14:32.534Z,12.93
2022-11-26T13:17:02.169Z,16.40
2022-11-26T13:19:47.556Z,12.75
2022-11-26T13:22:37.282Z,12.35
2022-11-26T13:25:03.679Z,17.30
2022-11-26T13:27:36.277Z,13.85
2022-11-26T13:30:24.500Z,16.00
2022-11-26T13:32:50.867Z,16.55
2022-11-26T13:35:22.839Z,18.35
2022-11-26T13:37:49.188Z,25.17
2022-11-26T13:40:29.318Z,18.15
2022-11-26T13:43:22.329Z,15.30
2022-11-26T13:46:02.418Z,16.90
2022-11-26T13:48:28.775Z,13.15
2022-11-26T13:51:00.587Z,18.38
2022-11-26T13:53:29.804Z,14.73
2022-11-26T13:55:59.289Z,13.55
2022-11-26T13:58:31.783Z,15.05
2022-11-26T14:01:18.605Z,20.48
2022-11-26T14:03:46.854Z,12.73
2022-11-26T14:06:13.623Z,36.78
2022-11-26T14:08:41.901Z,15.57
2022-11-26T14:11:08.980Z,13.25
2022-11-26T14:13:35.461Z,21.58
2022-11-26T14:16:09.195Z,14.38
2022-11-26T14:18:48.010Z,14.38
2022-11-26T14:21:15.340Z,14.63
2022-11-26T14:23:44.771Z,13.02
2022-11-26T14:26:13.860Z,15.52
2022-11-26T14:28:40.223Z,12.55
2022-11-26T14:31:21.104Z,12.93
2022-11-26T14:33:48.442Z,12.98
2022-11-26T14:36:33.009Z,11.35
2022-11-26T14:39:17.732Z,14.38
2022-11-26T14:41:44.273Z,13.15
2022-11-26T14:44:12.037Z,16.50
2022-11-26T14:46:39.055Z,15.00
2022-11-26T14:49:14.498Z,12.52
2022-11-26T14:51:43.334Z,16.08
2022-11-26T14:54:15.434Z,16.02
2022-11-26T14:56:46.368Z,13.02
2022-11-26T14:59:15.429Z,15.95
2022-11-26T15:01:44.192Z,14.95
2022-11-26T15:04:20.904Z,16.50
2022-11-26T15:06:47.411Z,15.13
2022-11-26T15:09:15.657Z,15.07
2022-11-26T15:11:51.361Z,18.33
2022-11-26T15:14:23.532Z,14.80
2022-11-26T15:16:54.848Z,15.90
2022-11-26T15:19:21.418Z,13.88
2022-11-26T15:21:48.234Z,13.43
2022-11-26T15:24:15.265Z,16.40
2022-11-26T15:26:44.868Z,16.05
2022-11-26T15:29:41.472Z,14.40
2022-11-26T15:32:24.244Z,14.82
2022-11-26T15:34:51.277Z,12.23
2022-11-26T15:37:17.740Z,15.88
2022-11-26T15:39:44.171Z,15.95
2022-11-26T15:42:30.530Z,14.25
2022-11-26T15:44:57.168Z,17.45
2022-11-26T15:47:24.920Z,20.60
2022-11-26T15:49:54.153Z,16.58
2022-11-26T15:52:22.279Z,18.38
2022-11-26T15:55:11.848Z,18.35
2022-11-26T15:57:40.193Z,13.57
2022-11-26T16:00:18.206Z,15.27
2022-11-26T16:02:45.381Z,13.35
2022-11-26T16:05:41.355Z,12.90
2022-11-26T16:08:27.475Z,15.05
2022-11-26T16:10:54.823Z,17.23
2022-11-26T16:13:22.928Z,15.20
2022-11-26T16:15:54.271Z,14.05
2022-11-26T16:18:22.519Z,15.73
2022-11-26T16:20:49.305Z,10.07
2022-11-26T16:23:21.397Z,17.60
2022-11-26T16:26:06.801Z,20.75
2022-11-26T16:28:33.247Z,16.40
2022-11-26T16:30:59.723Z,14.13
2022-11-26T16:33:29.305Z,11.75
2022-11-26T16:35:55.943Z,14.02
2022-11-26T16:38:23.929Z,10.52
2022-11-26T16:40:50.580Z,15.50
2022-11-26T16:43:17.099Z,10.95
2022-11-26T16:45:43.885Z,12.30
2022-11-26T16:48:30.543Z,15.63
2022-11-26T16:50:57.001Z,12.32
2022-11-26T16:53:23.652Z,17.00
2022-11-26T16:55:51.007Z,15.23
2022-11-26T16:58:31.159Z,12.75
2022-11-26T17:00:57.904Z,19.55
2022-11-26T17:03:25.222Z,17.98
2022-11-26T17:05:53.734Z,13.45
2022-11-26T17:08:20.244Z,11.43
2022-11-26T17:10:50.896Z,14.40
2022-11-26T17:13:17.812Z,16.48
2022-11-26T17:15:44.886Z,17.27
2022-11-26T17:18:18.095Z,15.05
2022-11-26T17:20:44.822Z,18.37
2022-11-26T17:23:11.335Z,20.00
2022-11-26T17:25:37.736Z,20.40
2022-11-26T17:28:06.013Z,20.65
2022-11-26T17:30:32.563Z,17.15
2022-11-26T17:32:59.006Z,15.90
2022-11-26T17:35:25.472Z,16.52
2022-11-26T17:37:51.868Z,15.60
2022-11-26T17:40:20.097Z,15.00
2022-11-26T17:42:46.866Z,18.80
2022-11-26T17:45:13.578Z,17.15
2022-11-26T17:47:40.506Z,14.15
2022-11-26T17:50:07.753Z,14.30
2022-11-26T17:52:34.128Z,17.90
2022-11-26T17:55:00.596Z,25.35
2022-11-26T17:57:28.252Z,19.38
2022-11-26T17:59:54.793Z,18.13
2022-11-26T18:02:21.287Z,14.63
2022-11-26T18:04:47.738Z,16.77
2022-11-26T18:07:15.835Z,17.63
2022-11-26T18:09:42.807Z,20.00
2022-11-26T18:12:16.343Z,19.98
2022-11-26T18:14:44.373Z,23.05
2022-11-26T18:17:11.380Z,22.60
2022-11-26T18:19:43.186Z,16.55
2022-11-26T18:22:12.612Z,18.02
2022-11-26T18:24:39.081Z,15.43
2022-11-26T18:27:05.497Z,13.13
2022-11-26T18:29:31.972Z,13.45
2022-11-26T18:31:58.466Z,14.48
2022-11-26T18:34:24.866Z,17.25
2022-11-26T18:36:53.886Z,24.80
2022-11-26T18:39:20.838Z,16.48
2022-11-26T18:41:47.326Z,11.35
2022-11-26T18:44:13.720Z,13.82
2022-11-26T18:46:40.181Z,15.40
2022-11-26T18:49:06.703Z,13.90
2022-11-26T18:51:33.125Z,14.98
2022-11-26T18:53:59.540Z,12.20
2022-11-26T18:56:25.940Z,16.73
2022-11-26T18:58:52.438Z,14.55
2022-11-26T19:01:22.044Z,13.35
2022-11-26T19:03:48.724Z,12.82
2022-11-26T19:06:16.628Z,14.02
2022-11-26T19:08:43.217Z,11.90
2022-11-26T19:11:10.408Z,18.30
2022-11-26T19:13:39.632Z,12.38
2022-11-26T19:16:14.660Z,11.48
2022-11-26T19:18:43.249Z,12.75
2022-11-26T19:21:20.062Z,12.50
2022-11-26T19:23:46.664Z,13.35
2022-11-26T19:26:13.434Z,10.32
2022-11-26T19:28:39.849Z,10.55
2022-11-26T19:31:08.807Z,10.75
2022-11-26T19:33:35.286Z,9.52
2022-11-26T19:36:05.597Z,12.88
2022-11-26T19:38:32.034Z,10.82
2022-11-26T19:40:59.248Z,11.77
2022-11-26T19:43:26.428Z,11.45
2022-11-26T19:46:00.984Z,10.20
2022-11-26T19:48:27.548Z,8.25
2022-11-26T19:50:55.231Z,9.40
2022-11-26T19:53:21.962Z,12.07
2022-11-26T19:55:55.024Z,13.10
2022-11-26T19:58:21.413Z,13.15
2022-11-26T20:00:47.996Z,11.60
2022-11-26T20:03:14.399Z,10.88
2022-11-26T20:05:40.811Z,8.93
2022-11-26T20:08:08.062Z,10.50
2022-11-26T20:10:34.534Z,11.75
2022-11-26T20:13:00.948Z,14.43
2022-11-26T20:15:27.325Z,10.55
2022-11-26T20:17:53.708Z,10.88
2022-11-26T20:20:20.060Z,12.23
2022-11-26T20:22:46.456Z,10.82
2022-11-26T20:25:15.358Z,11.30
2022-11-26T20:27:43.507Z,10.57
2022-11-26T20:30:10.616Z,12.30
2022-11-26T20:32:37.595Z,9.23
2022-11-26T20:35:04.458Z,7.68
2022-11-26T20:37:30.969Z,9.48
2022-11-26T20:39:57.507Z,12.20
2022-11-26T20:42:24.112Z,12.95
2022-11-26T20:44:50.523Z,12.60
2022-11-26T20:47:16.904Z,14.70
2022-11-26T20:49:43.544Z,8.65
2022-11-26T20:52:10.012Z,9.38
2022-11-26T20:54:36.457Z,7.60
2022-11-26T20:57:02.871Z,9.07
2022-11-26T20:59:29.347Z,8.45
2022-11-26T21:01:55.751Z,10.40
2022-11-26T21:04:22.268Z,8.98
2022-11-26T21:06:48.625Z,6.70
2022-11-26T21:09:16.848Z,7.85
2022-11-26T21:11:43.339Z,9.65
2022-11-26T21:14:14.737Z,9.93
2022-11-26T21:16:41.483Z,10.18
2022-11-26T21:19:10.717Z,8.32
2022-11-26T21:21:37.278Z,11.10
2022-11-26T21:24:05.921Z,14.98
2022-11-26T21:26:32.846Z,7.03
2022-11-26T21:29:00.168Z,9.20
2022-11-26T21:31:27.643Z,7.00
2022-11-26T21:33:58.202Z,9.93
2022-11-26T21:36:24.762Z,11.02
2022-11-26T21:38:51.149Z,12.38
2022-11-26T21:41:19.747Z,11.07
2022-11-26T21:43:46.694Z,8.80
2022-11-26T21:46:14.695Z,14.35
2022-11-26T21:48:41.335Z,11.88
2022-11-26T21:51:08.739Z,9.23
2022-11-26T21:53:35.354Z,11.23
2022-11-26T21:56:06.041Z,7.63
2022-11-26T21:58:35.611Z,8.43
2022-11-26T22:01:09.009Z,7.95
2022-11-26T22:03:35.486Z,9.00
2022-11-26T22:06:01.867Z,14.23
2022-11-26T22:08:28.376Z,11.75
2022-11-26T22:10:54.727Z,12.82
2022-11-26T22:13:21.078Z,16.60
2022-11-26T22:15:47.497Z,14.60
2022-11-26T22:18:13.873Z,9.23
2022-11-26T22:20:40.252Z,10.60
2022-11-26T22:23:06.644Z,9.50
2022-11-26T22:25:33.587Z,9.18
2022-11-26T22:27:59.938Z,12.75
2022-11-26T22:30:26.387Z,13.13
2022-11-26T22:32:52.800Z,12.35
2022-11-26T22:35:19.189Z,12.43
2022-11-26T22:37:45.547Z,13.63
2022-11-26T22:40:12.114Z,9.98
2022-11-26T22:42:40.150Z,10.15
2022-11-26T22:45:06.698Z,11.57
2022-11-26T22:47:33.055Z,9.57
2022-11-26T22:49:59.823Z,11.25
2022-11-26T22:52:26.192Z,13.68
2022-11-26T22:54:52.557Z,13.82
2022-11-26T22:57:23.783Z,12.70
2022-11-26T22:59:51.675Z,10.77
2022-11-26T23:02:18.163Z,10.88
2022-11-26T23:04:44.609Z,7.97
2022-11-26T23:07:11.104Z,9.82
2022-11-26T23:09:40.266Z,14.38
2022-11-26T23:12:08.835Z,12.55
2022-11-26T23:14:35.219Z,15.20
2022-11-26T23:17:01.903Z,16.95
2022-11-26T23:19:28.262Z,12.45
2022-11-26T23:21:54.659Z,15.57
2022-11-26T23:24:21.124Z,14.02
2022-11-26T23:26:47.659Z,17.38
2022-11-26T23:29:14.227Z,13.98
2022-11-26T23:31:42.202Z,14.80
2022-11-26T23:34:09.339Z,13.85
2022-11-26T23:36:36.544Z,12.73
2022-11-26T23:39:04.367Z,11.82
2022-11-26T23:41:30.997Z,12.13
2022-11-26T23:43:57.350Z,14.27
2022-11-26T23:46:25.296Z,16.63
2022-11-26T23:48:51.712Z,14.70
2022-11-26T23:51:20.329Z,15.32
2022-11-26T23:53:47.544Z,14.68
2022-11-26T23:56:15.542Z,12.70
2022-11-26T23:58:42.242Z,19.65
